LHPP/PEV METAR and TAF weather

Enter ICAO airport designator
Station Type Date Time Source
LHPP METAR 2022/01/23 12:15 UTC NOAA

LHPP 231215Z AUTO 33010KT CAVOK 00/M06 Q1028


Station Type Date Time Source
LHPP Decoded METAR 2022/01/23 12:15 UTC NOAA

Pecs / Pogany, Hungary (LHPP) 46-06N 018-14E 203M
Jan 23, 2022 - 07:15 AM EST / 2022.01.23 1215 UTC
Wind: from the NNW (330 degrees) at 12 MPH (10 KT):0
Visibility: greater than 7 mile(s):0
Temperature: 32 F (0 C)
Windchill: 23 F (-5 C):1
Dew Point: 21 F (-6 C)
Relative Humidity: 63%
Pressure (altimeter): 30.36 in. Hg (1028 hPa)
ob: LHPP 231215Z AUTO 33010KT CAVOK 00/M06 Q1028
cycle: 12

Station Type Date Time Source
LHPP TAF 2017/08/21 15:50 UTC NOAA

TAF LHPP 211700Z 2115/2214 CNL

Example: see airport list